createdAt,value
2018-08-03T00:00:17.715Z,0.00
2018-08-03T00:01:17.649Z,0.00
2018-08-03T00:02:17.585Z,0.00
2018-08-03T00:03:17.515Z,0.00
2018-08-03T00:04:17.447Z,0.00
2018-08-03T00:05:17.379Z,0.00
2018-08-03T00:06:17.312Z,0.00
2018-08-03T00:07:17.246Z,0.00
2018-08-03T00:08:17.175Z,0.00
2018-08-03T00:09:17.109Z,0.00
2018-08-03T00:10:17.040Z,0.00
2018-08-03T00:11:16.973Z,0.00
2018-08-03T00:12:16.908Z,0.00
2018-08-03T00:13:16.839Z,0.00
2018-08-03T00:14:16.773Z,0.00
2018-08-03T00:15:16.703Z,0.00
2018-08-03T00:16:16.634Z,0.00
2018-08-03T00:17:16.568Z,0.00
2018-08-03T00:18:16.502Z,0.00
2018-08-03T00:19:16.434Z,0.00
2018-08-03T00:20:16.365Z,0.00
2018-08-03T00:21:16.298Z,0.00
2018-08-03T00:22:16.230Z,0.00
2018-08-03T00:23:16.164Z,0.00
2018-08-03T00:24:16.094Z,0.00
2018-08-03T00:25:16.027Z,0.00
2018-08-03T00:26:15.959Z,0.00
2018-08-03T00:27:15.892Z,0.00
2018-08-03T00:28:15.825Z,0.00
2018-08-03T00:29:15.757Z,0.00
2018-08-03T00:30:15.690Z,0.00
2018-08-03T00:31:15.623Z,0.00
2018-08-03T00:32:15.554Z,0.00
2018-08-03T00:33:15.487Z,0.00
2018-08-03T00:34:15.420Z,0.00
2018-08-03T00:35:15.352Z,0.00
2018-08-03T00:36:15.284Z,0.00
2018-08-03T00:37:15.216Z,0.00
2018-08-03T00:38:15.149Z,0.00
2018-08-03T00:39:15.081Z,0.00
2018-08-03T00:40:15.013Z,0.00
2018-08-03T00:41:14.946Z,0.00
2018-08-03T00:42:14.878Z,0.00
2018-08-03T00:43:14.812Z,0.00
2018-08-03T00:44:14.742Z,0.00
2018-08-03T00:45:14.675Z,0.00
2018-08-03T00:46:14.608Z,0.00
2018-08-03T00:47:14.540Z,0.00
2018-08-03T00:48:14.472Z,0.00
2018-08-03T00:49:14.406Z,0.00
2018-08-03T00:50:14.338Z,0.00
2018-08-03T00:51:14.270Z,0.00
2018-08-03T00:52:14.235Z,0.00
2018-08-03T00:53:14.134Z,0.00
2018-08-03T00:54:14.069Z,0.00
2018-08-03T00:55:14.001Z,0.00
2018-08-03T00:56:13.931Z,0.00
2018-08-03T00:57:13.871Z,0.00
2018-08-03T00:58:13.797Z,0.00
2018-08-03T00:59:13.728Z,0.00
2018-08-03T01:00:13.662Z,0.00
2018-08-03T01:01:13.598Z,0.00
2018-08-03T01:02:13.528Z,0.00
2018-08-03T01:03:13.461Z,0.00
2018-08-03T01:04:13.391Z,0.00
2018-08-03T01:05:13.327Z,0.00
2018-08-03T01:06:13.257Z,0.00
2018-08-03T01:07:13.189Z,0.00
2018-08-03T01:08:13.121Z,0.00
2018-08-03T01:09:13.054Z,0.00
2018-08-03T01:10:12.988Z,0.00
2018-08-03T01:11:12.920Z,0.00
2018-08-03T01:12:12.853Z,0.00
2018-08-03T01:13:12.787Z,0.00
2018-08-03T01:14:12.717Z,0.00
2018-08-03T01:15:12.648Z,0.00
2018-08-03T01:16:12.581Z,0.00
2018-08-03T01:17:12.512Z,0.00
2018-08-03T01:18:12.446Z,0.00
2018-08-03T01:19:12.379Z,0.00
2018-08-03T01:20:12.312Z,0.00
2018-08-03T01:21:12.243Z,0.00
2018-08-03T01:22:12.176Z,0.00
2018-08-03T01:23:12.108Z,0.00
2018-08-03T01:24:12.041Z,0.00
2018-08-03T01:25:11.973Z,0.00
2018-08-03T01:26:11.905Z,0.00
2018-08-03T01:27:11.839Z,0.00
2018-08-03T01:28:11.770Z,0.00
2018-08-03T01:29:11.704Z,0.00
2018-08-03T01:30:11.635Z,0.00
2018-08-03T01:31:11.568Z,0.00
2018-08-03T01:32:11.499Z,0.00
2018-08-03T01:33:11.435Z,0.00
2018-08-03T01:34:11.365Z,0.00
2018-08-03T01:35:11.297Z,0.00
2018-08-03T01:36:11.228Z,0.00
2018-08-03T01:37:11.174Z,0.00
2018-08-03T01:38:11.094Z,0.00
2018-08-03T01:39:11.026Z,0.00
2018-08-03T01:40:10.958Z,0.00
2018-08-03T01:41:10.891Z,0.00
2018-08-03T01:42:10.825Z,0.00
2018-08-03T01:43:10.759Z,0.00
2018-08-03T01:44:10.689Z,0.00
2018-08-03T01:45:10.621Z,0.00
2018-08-03T01:46:10.554Z,0.00
2018-08-03T01:47:10.485Z,0.00
2018-08-03T01:48:10.416Z,0.00
2018-08-03T01:49:10.350Z,0.00
2018-08-03T01:50:10.283Z,0.00
2018-08-03T01:51:10.215Z,0.00
2018-08-03T01:52:10.149Z,0.00
2018-08-03T01:53:10.078Z,0.00
2018-08-03T01:54:10.012Z,0.00
2018-08-03T01:55:09.943Z,0.00
2018-08-03T01:56:09.875Z,0.00
2018-08-03T01:57:09.809Z,0.00
2018-08-03T01:58:09.740Z,0.00
2018-08-03T01:59:09.740Z,0.00
2018-08-03T02:00:09.605Z,0.00
2018-08-03T02:01:09.534Z,0.00
2018-08-03T02:02:09.471Z,0.00
2018-08-03T02:03:09.447Z,0.00
2018-08-03T02:04:09.331Z,0.00
2018-08-03T02:05:09.262Z,0.00
2018-08-03T02:06:09.196Z,0.00
2018-08-03T02:07:09.127Z,0.00
2018-08-03T02:08:09.058Z,0.00
2018-08-03T02:09:08.990Z,0.00
2018-08-03T02:10:08.921Z,0.00
2018-08-03T02:11:08.858Z,0.00
2018-08-03T02:12:08.787Z,0.00
2018-08-03T02:13:08.719Z,0.00
2018-08-03T02:14:08.649Z,0.00
2018-08-03T02:15:08.581Z,0.00
2018-08-03T02:16:08.510Z,0.00
2018-08-03T02:17:08.446Z,0.00
2018-08-03T02:18:08.378Z,0.00
2018-08-03T02:19:08.320Z,0.00
2018-08-03T02:20:08.238Z,0.00
2018-08-03T02:21:08.169Z,0.00
2018-08-03T02:22:08.108Z,0.00
2018-08-03T02:23:08.033Z,0.00
2018-08-03T02:24:07.967Z,0.00
2018-08-03T02:25:07.893Z,0.00
2018-08-03T02:26:07.827Z,0.00
2018-08-03T02:27:07.758Z,0.00
2018-08-03T02:28:07.689Z,0.00
2018-08-03T02:29:07.619Z,0.00
2018-08-03T02:30:07.553Z,0.00
2018-08-03T02:31:07.485Z,0.00
2018-08-03T02:32:07.414Z,0.00
2018-08-03T02:33:07.345Z,0.00
2018-08-03T02:34:07.275Z,0.00
2018-08-03T02:35:07.208Z,0.00
2018-08-03T02:36:07.138Z,0.00
2018-08-03T02:37:07.070Z,0.00
2018-08-03T02:38:07.004Z,0.00
2018-08-03T02:39:06.936Z,0.00
2018-08-03T02:40:06.862Z,0.00
2018-08-03T02:41:06.793Z,0.00
2018-08-03T02:42:06.726Z,0.00
2018-08-03T02:43:06.657Z,0.00
2018-08-03T02:44:06.587Z,0.00
2018-08-03T02:45:06.518Z,0.00
2018-08-03T02:46:06.454Z,0.00
2018-08-03T02:47:06.380Z,0.00
2018-08-03T02:48:06.311Z,0.00
2018-08-03T02:49:06.248Z,0.00
2018-08-03T02:50:06.173Z,0.00
2018-08-03T02:51:06.104Z,0.00
2018-08-03T02:52:06.035Z,0.00
2018-08-03T02:53:05.971Z,0.00
2018-08-03T02:54:05.899Z,0.00
2018-08-03T02:55:05.830Z,0.00
2018-08-03T02:56:05.759Z,0.00
2018-08-03T02:57:05.691Z,0.00
2018-08-03T02:58:05.624Z,0.00
2018-08-03T02:59:05.552Z,0.00
2018-08-03T03:00:05.488Z,0.00
2018-08-03T03:01:05.413Z,0.00
2018-08-03T03:02:05.344Z,0.00
2018-08-03T03:03:05.276Z,0.00
2018-08-03T03:04:05.207Z,0.00
2018-08-03T03:05:05.138Z,0.00
2018-08-03T03:06:05.070Z,0.00
2018-08-03T03:07:05.004Z,0.00
2018-08-03T03:08:04.931Z,0.00
2018-08-03T03:09:04.861Z,0.00
2018-08-03T03:10:04.793Z,0.00
2018-08-03T03:11:04.723Z,0.00
2018-08-03T03:12:04.654Z,0.00
2018-08-03T03:13:04.583Z,0.00
2018-08-03T03:14:04.516Z,0.00
2018-08-03T03:15:04.447Z,0.00
2018-08-03T03:16:04.378Z,0.00
2018-08-03T03:17:04.308Z,0.00
2018-08-03T03:18:04.239Z,0.00
2018-08-03T03:19:04.170Z,0.00
2018-08-03T03:20:04.100Z,0.00
2018-08-03T03:21:04.031Z,0.00
2018-08-03T03:22:03.962Z,0.00
2018-08-03T03:23:03.893Z,0.00
2018-08-03T03:24:03.826Z,0.00
2018-08-03T03:25:03.754Z,0.00
2018-08-03T03:26:03.685Z,0.00
2018-08-03T03:27:03.615Z,0.00
2018-08-03T03:28:03.546Z,0.00
2018-08-03T03:29:03.479Z,0.00
2018-08-03T03:30:03.406Z,0.00
2018-08-03T03:31:03.339Z,0.00
2018-08-03T03:32:03.273Z,0.00
2018-08-03T03:33:03.200Z,0.00
2018-08-03T03:34:03.130Z,0.00
2018-08-03T03:35:03.060Z,0.00
2018-08-03T03:36:02.992Z,0.00
2018-08-03T03:37:02.921Z,0.00
2018-08-03T03:38:02.850Z,0.00
2018-08-03T03:39:02.781Z,0.00
2018-08-03T03:40:02.714Z,0.00
2018-08-03T03:41:02.641Z,0.00
2018-08-03T03:42:02.572Z,0.00
2018-08-03T03:43:02.503Z,0.00
2018-08-03T03:44:02.434Z,0.00
2018-08-03T03:45:02.365Z,0.00
2018-08-03T03:46:02.295Z,0.00
2018-08-03T03:47:02.225Z,0.00
2018-08-03T03:48:02.155Z,0.00
2018-08-03T03:49:02.085Z,0.00
2018-08-03T03:50:02.017Z,0.00
2018-08-03T03:51:01.982Z,0.00
2018-08-03T03:52:01.877Z,0.00
2018-08-03T03:53:01.807Z,5.63
2018-08-03T03:54:01.739Z,5.63
2018-08-03T03:55:01.667Z,5.63
2018-08-03T03:56:01.598Z,5.63
2018-08-03T03:57:01.529Z,5.63
2018-08-03T03:58:01.460Z,5.63
2018-08-03T03:59:01.389Z,5.63
2018-08-03T04:00:01.320Z,5.63
2018-08-03T04:01:01.250Z,5.63
2018-08-03T04:02:01.180Z,11.25
2018-08-03T04:03:01.114Z,11.25
2018-08-03T04:04:01.042Z,11.25
2018-08-03T04:05:00.970Z,11.25
2018-08-03T04:06:00.900Z,11.25
2018-08-03T04:07:00.832Z,11.25
2018-08-03T04:08:00.762Z,16.88
2018-08-03T04:09:00.692Z,16.88
2018-08-03T04:10:00.622Z,16.88
2018-08-03T04:11:00.620Z,16.88
2018-08-03T04:12:00.483Z,16.88
2018-08-03T04:13:00.413Z,22.50
2018-08-03T04:14:00.344Z,22.50
2018-08-03T04:15:00.275Z,22.50
2018-08-03T04:16:00.243Z,22.50
2018-08-03T04:17:00.135Z,22.50
2018-08-03T04:18:00.065Z,28.13
2018-08-03T04:18:59.997Z,28.13
2018-08-03T04:19:59.925Z,28.13
2018-08-03T04:20:59.858Z,28.13
2018-08-03T04:21:59.787Z,28.13
2018-08-03T04:22:59.718Z,33.75
2018-08-03T04:23:59.649Z,33.75
2018-08-03T04:24:59.577Z,33.75
2018-08-03T04:25:59.508Z,33.75
2018-08-03T04:26:59.438Z,33.75
2018-08-03T04:27:59.370Z,39.38
2018-08-03T04:28:59.299Z,39.38
2018-08-03T04:29:59.230Z,39.38
2018-08-03T04:30:59.160Z,39.38
2018-08-03T04:31:59.089Z,39.38
2018-08-03T04:32:59.021Z,45.00
2018-08-03T04:33:58.950Z,45.00
2018-08-03T04:34:58.881Z,45.00
2018-08-03T04:35:58.811Z,45.00
2018-08-03T04:36:58.741Z,45.00
2018-08-03T04:37:58.672Z,50.63
2018-08-03T04:38:58.627Z,50.63
2018-08-03T04:39:58.533Z,50.63
2018-08-03T04:40:58.463Z,50.63
2018-08-03T04:41:58.393Z,50.63
2018-08-03T04:42:58.325Z,50.63
2018-08-03T04:43:58.254Z,56.25
2018-08-03T04:44:58.186Z,56.25
2018-08-03T04:45:58.116Z,56.25
2018-08-03T04:46:58.053Z,56.25
2018-08-03T04:47:57.975Z,56.25
2018-08-03T04:48:57.949Z,61.88
2018-08-03T04:49:57.838Z,61.88
2018-08-03T04:50:57.769Z,61.88
2018-08-03T04:51:57.700Z,61.88
2018-08-03T04:52:57.631Z,61.88
2018-08-03T04:53:57.559Z,67.50
2018-08-03T04:54:57.490Z,67.50
2018-08-03T04:55:57.424Z,67.50
2018-08-03T04:56:57.351Z,67.50
2018-08-03T04:57:57.281Z,67.50
2018-08-03T04:58:57.211Z,67.50
2018-08-03T04:59:57.145Z,73.13
2018-08-03T05:00:57.072Z,73.13
2018-08-03T05:01:57.004Z,73.13
2018-08-03T05:02:56.934Z,73.13
2018-08-03T05:03:56.864Z,73.13
2018-08-03T05:04:56.797Z,73.13
2018-08-03T05:05:56.726Z,78.75
2018-08-03T05:06:56.656Z,78.75
2018-08-03T05:07:56.588Z,78.75
2018-08-03T05:08:56.518Z,78.75
2018-08-03T05:09:56.449Z,84.38
2018-08-03T05:10:56.379Z,84.38
2018-08-03T05:11:56.310Z,90.00
2018-08-03T05:12:56.240Z,90.00
2018-08-03T05:13:56.176Z,90.00
2018-08-03T05:14:56.101Z,90.00
2018-08-03T05:15:56.031Z,90.00
2018-08-03T05:16:55.962Z,90.00
2018-08-03T05:17:55.893Z,90.00
2018-08-03T05:18:55.823Z,90.00
2018-08-03T05:19:55.754Z,90.00
2018-08-03T05:20:55.685Z,95.63
2018-08-03T05:21:55.615Z,95.63
2018-08-03T05:22:55.547Z,95.63
2018-08-03T05:23:55.476Z,95.63
2018-08-03T05:24:55.406Z,95.63
2018-08-03T05:25:55.339Z,95.63
2018-08-03T05:26:55.270Z,101.25
2018-08-03T05:27:55.200Z,101.25
2018-08-03T05:28:55.131Z,101.25
2018-08-03T05:29:55.061Z,101.25
2018-08-03T05:30:54.994Z,101.25
2018-08-03T05:31:54.928Z,101.25
2018-08-03T05:32:54.855Z,106.88
2018-08-03T05:33:54.787Z,106.88
2018-08-03T05:34:54.717Z,106.88
2018-08-03T05:35:54.666Z,106.88
2018-08-03T05:36:54.578Z,106.88
2018-08-03T05:37:54.510Z,106.88
2018-08-03T05:38:54.441Z,106.88
2018-08-03T05:39:54.373Z,112.50
2018-08-03T05:40:54.301Z,118.13
2018-08-03T05:41:54.234Z,112.50
2018-08-03T05:42:54.168Z,112.50
2018-08-03T05:43:54.095Z,112.50
2018-08-03T05:44:54.030Z,112.50
2018-08-03T05:45:53.960Z,112.50
2018-08-03T05:46:53.890Z,118.13
2018-08-03T05:47:53.821Z,118.13
2018-08-03T05:48:53.751Z,118.13
2018-08-03T05:49:53.684Z,118.13
2018-08-03T05:50:53.615Z,118.13
2018-08-03T05:51:53.546Z,118.13
2018-08-03T05:52:53.477Z,118.13
2018-08-03T05:53:53.409Z,123.75
2018-08-03T05:54:53.340Z,123.75
2018-08-03T05:55:53.271Z,123.75
2018-08-03T05:56:53.202Z,123.75
2018-08-03T05:57:53.142Z,123.75
2018-08-03T05:58:53.066Z,123.75
2018-08-03T05:59:52.997Z,123.75
2018-08-03T06:00:52.932Z,123.75
2018-08-03T06:01:52.860Z,123.75
2018-08-03T06:02:52.794Z,123.75
2018-08-03T06:03:52.775Z,129.38
2018-08-03T06:04:52.659Z,129.38
2018-08-03T06:05:52.584Z,129.38
2018-08-03T06:06:52.516Z,129.38
2018-08-03T06:07:52.451Z,129.38
2018-08-03T06:08:52.380Z,129.38
2018-08-03T06:09:52.313Z,129.38
2018-08-03T06:10:52.244Z,129.38
2018-08-03T06:11:52.176Z,129.38
2018-08-03T06:12:52.106Z,129.38
2018-08-03T06:13:52.039Z,135.00
2018-08-03T06:14:52.015Z,135.00
2018-08-03T06:15:51.900Z,135.00
2018-08-03T06:16:51.832Z,135.00
2018-08-03T06:17:51.765Z,135.00
2018-08-03T06:18:51.697Z,135.00
2018-08-03T06:19:51.627Z,135.00
2018-08-03T06:20:51.561Z,135.00
2018-08-03T06:21:51.492Z,135.00
2018-08-03T06:22:51.427Z,135.00
2018-08-03T06:23:51.356Z,135.00
2018-08-03T06:24:51.288Z,135.00
2018-08-03T06:25:51.220Z,135.00
2018-08-03T06:26:51.152Z,135.00
2018-08-03T06:27:51.085Z,135.00
2018-08-03T06:28:51.017Z,135.00
2018-08-03T06:29:50.949Z,140.63
2018-08-03T06:30:50.882Z,140.63
2018-08-03T06:31:50.814Z,140.63
2018-08-03T06:32:50.745Z,140.63
2018-08-03T06:33:50.678Z,140.63
2018-08-03T06:34:50.610Z,140.63
2018-08-03T06:35:50.542Z,140.63
2018-08-03T06:36:50.475Z,140.63
2018-08-03T06:37:50.410Z,140.63
2018-08-03T06:38:50.340Z,140.63
2018-08-03T06:39:50.272Z,140.63
2018-08-03T06:40:50.204Z,140.63
2018-08-03T06:41:50.138Z,140.63
2018-08-03T06:42:50.073Z,140.63
2018-08-03T06:43:50.004Z,140.63
2018-08-03T06:44:49.935Z,146.25
2018-08-03T06:45:49.868Z,146.25
2018-08-03T06:46:49.802Z,146.25
2018-08-03T06:47:49.734Z,146.25
2018-08-03T06:48:49.668Z,146.25
2018-08-03T06:49:49.599Z,146.25
2018-08-03T06:50:49.532Z,146.25
2018-08-03T06:51:49.464Z,146.25
2018-08-03T06:52:49.399Z,146.25
2018-08-03T06:53:49.406Z,146.25
2018-08-03T06:54:49.263Z,146.25
2018-08-03T06:55:49.196Z,146.25
2018-08-03T06:56:49.130Z,146.25
2018-08-03T06:57:49.063Z,146.25
2018-08-03T06:58:48.998Z,146.25
2018-08-03T06:59:48.929Z,146.25
2018-08-03T07:00:48.866Z,146.25
2018-08-03T07:01:48.796Z,151.88
2018-08-03T07:02:48.840Z,151.88
2018-08-03T07:03:48.661Z,151.88
2018-08-03T07:04:48.594Z,151.88
2018-08-03T07:05:48.529Z,151.88
2018-08-03T07:06:48.463Z,151.88
2018-08-03T07:07:48.393Z,151.88
2018-08-03T07:08:48.327Z,151.88
2018-08-03T07:09:48.261Z,151.88
2018-08-03T07:10:48.195Z,151.88
2018-08-03T07:11:48.129Z,151.88
2018-08-03T07:12:48.061Z,151.88
2018-08-03T07:13:47.995Z,151.88
2018-08-03T07:14:47.987Z,151.88
2018-08-03T07:15:47.861Z,151.88
2018-08-03T07:16:47.796Z,157.50
2018-08-03T07:17:47.729Z,151.88
2018-08-03T07:18:47.664Z,151.88
2018-08-03T07:19:47.609Z,151.88
2018-08-03T07:20:47.529Z,157.50
2018-08-03T07:21:47.464Z,157.50
2018-08-03T07:22:47.402Z,157.50
2018-08-03T07:23:47.330Z,157.50
2018-08-03T07:24:47.266Z,157.50
2018-08-03T07:25:47.211Z,157.50
2018-08-03T07:26:47.132Z,157.50
2018-08-03T07:27:47.065Z,157.50
2018-08-03T07:28:47.001Z,157.50
2018-08-03T07:29:46.934Z,157.50
2018-08-03T07:30:46.868Z,157.50
2018-08-03T07:31:46.801Z,157.50
2018-08-03T07:32:46.736Z,163.13
2018-08-03T07:33:46.670Z,163.13
2018-08-03T07:34:46.604Z,163.13
2018-08-03T07:35:46.536Z,163.13
2018-08-03T07:36:46.477Z,163.13
2018-08-03T07:37:46.405Z,163.13
2018-08-03T07:38:46.340Z,163.13
2018-08-03T07:39:46.273Z,163.13
2018-08-03T07:40:46.208Z,163.13
2018-08-03T07:41:46.142Z,163.13
2018-08-03T07:42:46.089Z,163.13
2018-08-03T07:43:46.009Z,163.13
2018-08-03T07:44:45.948Z,163.13
2018-08-03T07:45:45.879Z,168.75
2018-08-03T07:46:45.812Z,168.75
2018-08-03T07:47:45.746Z,168.75
2018-08-03T07:48:45.680Z,168.75
2018-08-03T07:49:45.614Z,168.75
2018-08-03T07:50:45.548Z,168.75
2018-08-03T07:51:45.482Z,168.75
2018-08-03T07:52:45.417Z,168.75
2018-08-03T07:53:45.353Z,174.38
2018-08-03T07:54:45.286Z,174.38
2018-08-03T07:55:45.221Z,174.38
2018-08-03T07:56:45.155Z,174.38
2018-08-03T07:57:45.090Z,174.38
2018-08-03T07:58:45.024Z,174.38
2018-08-03T07:59:44.956Z,174.38
2018-08-03T08:00:44.892Z,174.38
2018-08-03T08:01:44.826Z,174.38
2018-08-03T08:02:44.762Z,174.38
2018-08-03T08:03:44.694Z,174.38
2018-08-03T08:04:44.630Z,174.38
2018-08-03T08:05:44.564Z,174.38
2018-08-03T08:06:44.500Z,174.38
2018-08-03T08:07:44.435Z,174.38
2018-08-03T08:08:44.368Z,174.38
2018-08-03T08:09:44.354Z,174.38
2018-08-03T08:10:44.239Z,174.38
2018-08-03T08:11:44.173Z,174.38
2018-08-03T08:12:44.107Z,174.38
2018-08-03T08:13:44.042Z,174.38
2018-08-03T08:14:43.977Z,174.38
2018-08-03T08:15:43.924Z,174.38
2018-08-03T08:16:43.871Z,174.38
2018-08-03T08:17:43.781Z,174.38
2018-08-03T08:18:43.718Z,174.38
2018-08-03T08:19:43.650Z,180.00
2018-08-03T08:20:43.585Z,180.00
2018-08-03T08:21:43.520Z,180.00
2018-08-03T08:22:43.455Z,180.00
2018-08-03T08:23:43.390Z,180.00
2018-08-03T08:24:43.324Z,180.00
2018-08-03T08:25:43.260Z,180.00
2018-08-03T08:26:43.196Z,180.00
2018-08-03T08:27:43.129Z,180.00
2018-08-03T08:28:43.063Z,180.00
2018-08-03T08:29:42.997Z,180.00
2018-08-03T08:30:42.935Z,185.63
2018-08-03T08:31:42.923Z,185.63
2018-08-03T08:32:42.802Z,185.63
2018-08-03T08:33:42.737Z,185.63
2018-08-03T08:34:42.673Z,185.63
2018-08-03T08:35:42.608Z,185.63
2018-08-03T08:36:42.542Z,185.63
2018-08-03T08:37:42.475Z,185.63
2018-08-03T08:38:42.414Z,185.63
2018-08-03T08:39:42.348Z,191.25
2018-08-03T08:40:42.282Z,191.25
2018-08-03T08:41:42.217Z,191.25
2018-08-03T08:42:42.154Z,191.25
2018-08-03T08:43:42.167Z,191.25
2018-08-03T08:44:42.022Z,196.88
2018-08-03T08:45:41.958Z,191.25
2018-08-03T08:46:41.892Z,191.25
2018-08-03T08:47:41.827Z,191.25
2018-08-03T08:48:41.764Z,196.88
2018-08-03T08:49:41.697Z,196.88
2018-08-03T08:50:41.634Z,196.88
2018-08-03T08:51:41.568Z,196.88
2018-08-03T08:52:41.506Z,196.88
2018-08-03T08:53:41.440Z,196.88
2018-08-03T08:54:41.384Z,202.50
2018-08-03T08:55:41.311Z,202.50
2018-08-03T08:56:41.245Z,202.50
2018-08-03T08:57:41.181Z,202.50
2018-08-03T08:58:41.115Z,202.50
2018-08-03T08:59:41.097Z,202.50
2018-08-03T09:00:40.984Z,202.50
2018-08-03T09:01:40.921Z,202.50
2018-08-03T09:02:40.857Z,202.50
2018-08-03T09:03:40.793Z,202.50
2018-08-03T09:04:40.727Z,208.13
2018-08-03T09:05:40.663Z,208.13
2018-08-03T09:06:40.601Z,208.13
2018-08-03T09:07:40.572Z,208.13
2018-08-03T09:08:40.468Z,208.13
2018-08-03T09:09:40.405Z,208.13
2018-08-03T09:10:40.341Z,213.75
2018-08-03T09:11:40.274Z,208.13
2018-08-03T09:12:40.291Z,208.13
2018-08-03T09:13:40.145Z,208.13
2018-08-03T09:14:40.083Z,208.13
2018-08-03T09:15:40.019Z,213.75
2018-08-03T09:16:39.953Z,213.75
2018-08-03T09:17:39.887Z,213.75
2018-08-03T09:18:39.860Z,213.75
2018-08-03T09:19:39.759Z,213.75
2018-08-03T09:20:39.695Z,213.75
2018-08-03T09:21:39.632Z,213.75
2018-08-03T09:22:39.567Z,213.75
2018-08-03T09:23:39.504Z,219.38
2018-08-03T09:24:39.503Z,219.38
2018-08-03T09:25:39.374Z,219.38
2018-08-03T09:26:39.310Z,219.38
2018-08-03T09:27:39.244Z,219.38
2018-08-03T09:28:39.180Z,219.38
2018-08-03T09:29:39.116Z,219.38
2018-08-03T09:30:39.060Z,219.38
2018-08-03T09:31:38.987Z,225.00
2018-08-03T09:32:38.922Z,219.38
2018-08-03T09:33:38.859Z,225.00
2018-08-03T09:34:38.795Z,225.00
2018-08-03T09:35:38.733Z,225.00
2018-08-03T09:36:38.759Z,225.00
2018-08-03T09:37:38.601Z,225.00
2018-08-03T09:38:38.538Z,225.00
2018-08-03T09:39:38.473Z,225.00
2018-08-03T09:40:38.415Z,225.00
2018-08-03T09:41:38.347Z,225.00
2018-08-03T09:42:38.284Z,230.63
2018-08-03T09:43:38.216Z,230.63
2018-08-03T09:44:38.155Z,230.63
2018-08-03T09:45:38.090Z,230.63
2018-08-03T09:46:38.025Z,230.63
2018-08-03T09:47:37.971Z,230.63
2018-08-03T09:48:37.897Z,236.25
2018-08-03T09:49:37.835Z,236.25
2018-08-03T09:50:37.769Z,236.25
2018-08-03T09:51:37.704Z,241.88
2018-08-03T09:52:37.640Z,241.88
2018-08-03T09:53:37.576Z,236.25
2018-08-03T09:54:37.512Z,241.88
2018-08-03T09:55:37.447Z,241.88
2018-08-03T09:56:37.382Z,241.88
2018-08-03T09:57:37.319Z,247.50
2018-08-03T09:58:37.262Z,247.50
2018-08-03T09:59:37.190Z,253.13
2018-08-03T10:00:37.126Z,253.13
2018-08-03T10:01:37.095Z,253.13
2018-08-03T10:02:37.000Z,253.13
2018-08-03T10:03:36.934Z,258.75
2018-08-03T10:04:36.869Z,258.75
2018-08-03T10:05:36.806Z,258.75
2018-08-03T10:06:36.750Z,258.75
2018-08-03T10:07:36.678Z,258.75
2018-08-03T10:08:36.618Z,264.38
2018-08-03T10:09:36.551Z,264.38
2018-08-03T10:10:36.487Z,264.38
2018-08-03T10:11:36.422Z,264.38
2018-08-03T10:12:36.357Z,264.38
2018-08-03T10:13:36.295Z,264.38
2018-08-03T10:14:36.235Z,270.00
2018-08-03T10:15:36.170Z,270.00
2018-08-03T10:16:36.104Z,275.63
2018-08-03T10:17:36.039Z,275.63
2018-08-03T10:18:35.978Z,275.63
2018-08-03T10:19:35.911Z,281.25
2018-08-03T10:20:35.848Z,286.88
2018-08-03T10:21:35.785Z,286.88
2018-08-03T10:22:35.721Z,286.88
2018-08-03T10:23:35.657Z,286.88
2018-08-03T10:24:35.593Z,286.88
2018-08-03T10:25:35.530Z,286.88
2018-08-03T10:26:35.466Z,286.88
2018-08-03T10:27:35.401Z,292.50
2018-08-03T10:28:35.340Z,292.50
2018-08-03T10:29:35.328Z,298.13
2018-08-03T10:30:35.213Z,309.38
2018-08-03T10:31:35.147Z,303.75
2018-08-03T10:32:35.083Z,309.38
2018-08-03T10:33:35.020Z,309.38
2018-08-03T10:34:34.957Z,309.38
2018-08-03T10:35:34.892Z,309.38
2018-08-03T10:36:34.834Z,315.00
2018-08-03T10:37:34.773Z,320.63
2018-08-03T10:38:34.702Z,326.25
2018-08-03T10:39:34.638Z,320.63
2018-08-03T10:40:34.575Z,320.63
2018-08-03T10:41:34.511Z,326.25
2018-08-03T10:42:34.448Z,326.25
2018-08-03T10:43:34.384Z,326.25
2018-08-03T10:44:34.320Z,331.88
2018-08-03T10:45:34.257Z,337.50
2018-08-03T10:46:34.194Z,337.50
2018-08-03T10:47:34.129Z,331.88
2018-08-03T10:48:34.067Z,331.88
2018-08-03T10:49:34.004Z,337.50
2018-08-03T10:50:33.940Z,354.38
2018-08-03T10:51:33.875Z,365.63
2018-08-03T10:52:33.815Z,371.25
2018-08-03T10:53:33.749Z,365.63
2018-08-03T10:54:33.687Z,365.63
2018-08-03T10:55:33.624Z,365.63
2018-08-03T10:56:33.559Z,360.00
2018-08-03T10:57:33.502Z,371.25
2018-08-03T10:58:33.433Z,393.75
2018-08-03T10:59:33.369Z,433.13
2018-08-03T11:00:33.305Z,421.88
2018-08-03T11:01:33.290Z,416.25
2018-08-03T11:02:33.180Z,410.63
2018-08-03T11:03:33.116Z,393.75
2018-08-03T11:04:33.054Z,568.13
2018-08-03T11:05:32.998Z,675.00
2018-08-03T11:06:32.927Z,2041.88
2018-08-03T11:07:32.864Z,466.88
2018-08-03T11:08:32.801Z,990.00
2018-08-03T11:09:32.739Z,2148.75
2018-08-03T11:10:32.676Z,2036.25
2018-08-03T11:11:32.614Z,2705.63
2018-08-03T11:12:32.552Z,1530.00
2018-08-03T11:13:32.537Z,753.75
2018-08-03T11:14:32.430Z,528.75
2018-08-03T11:15:32.365Z,562.50
2018-08-03T11:16:32.304Z,967.50
2018-08-03T11:17:32.242Z,860.63
2018-08-03T11:18:32.190Z,573.75
2018-08-03T11:19:32.118Z,511.88
2018-08-03T11:20:32.059Z,461.25
2018-08-03T11:21:32.000Z,500.63
2018-08-03T11:22:31.934Z,568.13
2018-08-03T11:23:31.872Z,618.75
2018-08-03T11:24:31.816Z,540.00
2018-08-03T11:25:31.748Z,500.63
2018-08-03T11:26:31.688Z,635.63
2018-08-03T11:27:31.625Z,540.00
2018-08-03T11:28:31.566Z,607.50
2018-08-03T11:29:31.507Z,556.88
2018-08-03T11:30:31.441Z,489.38
2018-08-03T11:31:31.379Z,495.00
2018-08-03T11:32:31.316Z,613.13
2018-08-03T11:33:31.257Z,590.63
2018-08-03T11:34:31.194Z,663.75
2018-08-03T11:35:31.133Z,613.13
2018-08-03T11:36:31.071Z,545.63
2018-08-03T11:37:31.009Z,1350.00
2018-08-03T11:38:30.948Z,1378.13
2018-08-03T11:39:30.886Z,1136.25
2018-08-03T11:40:30.824Z,624.38
2018-08-03T11:41:30.763Z,990.00
2018-08-03T11:42:30.701Z,838.13
2018-08-03T11:43:30.639Z,776.25
2018-08-03T11:44:30.578Z,585.00
2018-08-03T11:45:30.518Z,495.00
2018-08-03T11:46:30.457Z,478.13
2018-08-03T11:47:30.395Z,489.38
2018-08-03T11:48:30.415Z,483.75
2018-08-03T11:49:30.273Z,478.13
2018-08-03T11:50:30.214Z,461.25
2018-08-03T11:51:30.150Z,438.75
2018-08-03T11:52:30.088Z,427.50
2018-08-03T11:53:30.029Z,450.00
2018-08-03T11:54:29.965Z,472.50
2018-08-03T11:55:29.903Z,500.63
2018-08-03T11:56:29.842Z,590.63
2018-08-03T11:57:29.779Z,2396.25
2018-08-03T11:58:29.719Z,4213.13
2018-08-03T11:59:29.662Z,4286.25
2018-08-03T12:00:29.594Z,4573.13
2018-08-03T12:01:29.533Z,4533.75
2018-08-03T12:02:29.474Z,4584.38
2018-08-03T12:03:29.418Z,4190.63
2018-08-03T12:04:29.351Z,3791.25
2018-08-03T12:05:29.293Z,4111.88
2018-08-03T12:06:29.349Z,4179.38
2018-08-03T12:07:29.383Z,933.75
2018-08-03T12:08:29.119Z,821.25
2018-08-03T12:09:29.062Z,832.50
2018-08-03T12:10:29.006Z,900.00
2018-08-03T12:11:28.947Z,2761.88
2018-08-03T12:12:28.938Z,4646.25
2018-08-03T12:13:28.836Z,4263.75
2018-08-03T12:14:28.776Z,4156.88
2018-08-03T12:15:28.719Z,4286.25
2018-08-03T12:16:28.662Z,4201.88
2018-08-03T12:17:28.607Z,4179.38
2018-08-03T12:18:28.557Z,691.88
2018-08-03T12:19:28.495Z,590.63
2018-08-03T12:20:28.440Z,545.63
2018-08-03T12:21:28.385Z,511.88
2018-08-03T12:22:28.328Z,483.75
2018-08-03T12:23:28.287Z,472.50
2018-08-03T12:24:28.213Z,461.25
2018-08-03T12:25:28.157Z,472.50
2018-08-03T12:26:28.098Z,506.25
2018-08-03T12:27:28.044Z,534.38
2018-08-03T12:28:27.982Z,534.38
2018-08-03T12:29:27.922Z,511.88
2018-08-03T12:30:27.864Z,500.63
2018-08-03T12:31:27.809Z,551.25
2018-08-03T12:32:27.745Z,596.25
2018-08-03T12:33:27.686Z,798.75
2018-08-03T12:34:27.631Z,900.00
2018-08-03T12:35:27.565Z,765.00
2018-08-03T12:36:27.505Z,781.88
2018-08-03T12:37:27.445Z,781.88
2018-08-03T12:38:27.389Z,765.00
2018-08-03T12:39:27.322Z,697.50
2018-08-03T12:40:27.266Z,646.88
2018-08-03T12:41:27.202Z,675.00
2018-08-03T12:42:27.142Z,3532.50
2018-08-03T12:43:27.080Z,4567.50
2018-08-03T12:44:27.018Z,4696.88